sensor_id;sensor_type;location;lat;lon;timestamp;P1;durP1;ratioP1;P2;durP2;ratioP2
9722;SDS011;4900;49.306;8.500;2022-09-09T00:02:29;3.55;;;1.80;;
9722;SDS011;4900;49.306;8.500;2022-09-09T00:05:36;3.33;;;1.90;;
9722;SDS011;4900;49.306;8.500;2022-09-09T00:15:54;2.97;;;1.80;;
9722;SDS011;4900;49.306;8.500;2022-09-09T00:22:42;2.67;;;1.70;;
9722;SDS011;4900;49.306;8.500;2022-09-09T00:29:26;4.60;;;1.92;;
9722;SDS011;4900;49.306;8.500;2022-09-09T00:32:38;3.13;;;1.95;;
9722;SDS011;4900;49.306;8.500;2022-09-09T00:35:47;3.47;;;1.90;;
9722;SDS011;4900;49.306;8.500;2022-09-09T00:38:52;3.95;;;1.92;;
9722;SDS011;4900;49.306;8.500;2022-09-09T00:42:08;3.60;;;2.10;;
9722;SDS011;4900;49.306;8.500;2022-09-09T00:49:04;3.20;;;1.85;;
9722;SDS011;4900;49.306;8.500;2022-09-09T00:52:18;2.03;;;1.70;;
9722;SDS011;4900;49.306;8.500;2022-09-09T00:58:42;3.88;;;1.70;;
9722;SDS011;4900;49.306;8.500;2022-09-09T01:01:49;3.15;;;1.90;;
9722;SDS011;4900;49.306;8.500;2022-09-09T01:04:57;2.35;;;1.75;;
9722;SDS011;4900;49.306;8.500;2022-09-09T01:08:10;4.53;;;1.85;;
9722;SDS011;4900;49.306;8.500;2022-09-09T01:11:42;3.10;;;1.92;;
9722;SDS011;4900;49.306;8.500;2022-09-09T01:14:52;3.17;;;1.90;;
9722;SDS011;4900;49.306;8.500;2022-09-09T01:24:49;3.75;;;2.20;;
9722;SDS011;4900;49.306;8.500;2022-09-09T01:27:56;4.32;;;2.05;;
9722;SDS011;4900;49.306;8.500;2022-09-09T01:31:03;3.97;;;2.00;;
9722;SDS011;4900;49.306;8.500;2022-09-09T01:34:10;5.47;;;2.42;;
9722;SDS011;4900;49.306;8.500;2022-09-09T01:37:17;3.13;;;2.00;;
9722;SDS011;4900;49.306;8.500;2022-09-09T01:40:20;3.80;;;2.40;;
9722;SDS011;4900;49.306;8.500;2022-09-09T01:43:24;5.43;;;2.40;;
9722;SDS011;4900;49.306;8.500;2022-09-09T01:46:28;3.72;;;2.13;;
9722;SDS011;4900;49.306;8.500;2022-09-09T01:49:31;7.18;;;2.25;;
9722;SDS011;4900;49.306;8.500;2022-09-09T01:52:38;2.85;;;1.90;;
9722;SDS011;4900;49.306;8.500;2022-09-09T01:55:45;5.18;;;2.05;;
9722;SDS011;4900;49.306;8.500;2022-09-09T01:59:13;3.85;;;2.00;;
9722;SDS011;4900;49.306;8.500;2022-09-09T02:05:52;3.45;;;1.60;;
9722;SDS011;4900;49.306;8.500;2022-09-09T02:09:09;5.38;;;1.75;;
9722;SDS011;4900;49.306;8.500;2022-09-09T02:12:16;4.13;;;1.77;;
9722;SDS011;4900;49.306;8.500;2022-09-09T02:15:26;2.83;;;1.98;;
9722;SDS011;4900;49.306;8.500;2022-09-09T02:18:35;4.00;;;1.73;;
9722;SDS011;4900;49.306;8.500;2022-09-09T02:21:40;4.30;;;1.70;;
9722;SDS011;4900;49.306;8.500;2022-09-09T02:24:45;4.13;;;1.83;;
9722;SDS011;4900;49.306;8.500;2022-09-09T02:27:50;4.60;;;1.73;;
9722;SDS011;4900;49.306;8.500;2022-09-09T02:30:57;4.05;;;1.88;;
9722;SDS011;4900;49.306;8.500;2022-09-09T02:34:01;2.47;;;1.80;;
9722;SDS011;4900;49.306;8.500;2022-09-09T02:37:06;4.20;;;1.80;;
9722;SDS011;4900;49.306;8.500;2022-09-09T02:40:12;3.70;;;1.60;;
9722;SDS011;4900;49.306;8.500;2022-09-09T02:43:20;6.15;;;1.70;;
9722;SDS011;4900;49.306;8.500;2022-09-09T02:53:18;6.13;;;1.80;;
9722;SDS011;4900;49.306;8.500;2022-09-09T02:56:27;5.65;;;1.73;;
9722;SDS011;4900;49.306;8.500;2022-09-09T02:59:36;2.70;;;1.30;;
9722;SDS011;4900;49.306;8.500;2022-09-09T03:02:41;2.28;;;1.40;;
9722;SDS011;4900;49.306;8.500;2022-09-09T03:05:45;2.65;;;1.42;;
9722;SDS011;4900;49.306;8.500;2022-09-09T03:08:48;3.60;;;1.45;;
9722;SDS011;4900;49.306;8.500;2022-09-09T03:11:52;3.47;;;1.70;;
9722;SDS011;4900;49.306;8.500;2022-09-09T03:14:57;3.70;;;1.50;;
9722;SDS011;4900;49.306;8.500;2022-09-09T03:18:00;4.00;;;1.70;;
9722;SDS011;4900;49.306;8.500;2022-09-09T03:21:04;2.03;;;1.30;;
9722;SDS011;4900;49.306;8.500;2022-09-09T03:24:07;3.60;;;1.38;;
9722;SDS011;4900;49.306;8.500;2022-09-09T03:27:12;3.10;;;1.50;;
9722;SDS011;4900;49.306;8.500;2022-09-09T03:30:17;3.25;;;1.50;;
9722;SDS011;4900;49.306;8.500;2022-09-09T03:33:20;2.20;;;1.35;;
9722;SDS011;4900;49.306;8.500;2022-09-09T03:36:23;4.57;;;1.20;;
9722;SDS011;4900;49.306;8.500;2022-09-09T03:39:28;3.58;;;1.30;;
9722;SDS011;4900;49.306;8.500;2022-09-09T03:42:32;2.58;;;1.38;;
9722;SDS011;4900;49.306;8.500;2022-09-09T03:45:35;2.00;;;1.10;;
9722;SDS011;4900;49.306;8.500;2022-09-09T03:48:38;1.67;;;1.20;;
9722;SDS011;4900;49.306;8.500;2022-09-09T03:51:42;2.97;;;1.35;;
9722;SDS011;4900;49.306;8.500;2022-09-09T03:54:45;2.25;;;1.20;;
9722;SDS011;4900;49.306;8.500;2022-09-09T03:57:48;1.88;;;1.10;;
9722;SDS011;4900;49.306;8.500;2022-09-09T04:03:58;2.97;;;1.33;;
9722;SDS011;4900;49.306;8.500;2022-09-09T04:07:01;1.52;;;1.35;;
9722;SDS011;4900;49.306;8.500;2022-09-09T04:10:04;3.03;;;1.50;;
9722;SDS011;4900;49.306;8.500;2022-09-09T04:13:08;1.88;;;1.40;;
9722;SDS011;4900;49.306;8.500;2022-09-09T04:16:12;5.88;;;1.75;;
9722;SDS011;4900;49.306;8.500;2022-09-09T04:19:18;2.78;;;1.50;;
9722;SDS011;4900;49.306;8.500;2022-09-09T04:22:22;3.28;;;1.45;;
9722;SDS011;4900;49.306;8.500;2022-09-09T04:25:25;3.72;;;1.50;;
9722;SDS011;4900;49.306;8.500;2022-09-09T04:28:29;3.50;;;1.60;;
9722;SDS011;4900;49.306;8.500;2022-09-09T04:31:34;2.08;;;1.40;;
9722;SDS011;4900;49.306;8.500;2022-09-09T04:34:38;2.25;;;1.20;;
9722;SDS011;4900;49.306;8.500;2022-09-09T04:37:41;2.47;;;1.33;;
9722;SDS011;4900;49.306;8.500;2022-09-09T04:40:48;2.28;;;1.25;;
9722;SDS011;4900;49.306;8.500;2022-09-09T04:43:55;3.17;;;1.20;;
9722;SDS011;4900;49.306;8.500;2022-09-09T04:46:58;3.08;;;1.40;;
9722;SDS011;4900;49.306;8.500;2022-09-09T04:50:01;1.92;;;1.42;;
9722;SDS011;4900;49.306;8.500;2022-09-09T04:53:05;2.58;;;1.40;;
9722;SDS011;4900;49.306;8.500;2022-09-09T04:56:10;3.03;;;1.50;;
9722;SDS011;4900;49.306;8.500;2022-09-09T04:59:14;2.55;;;1.38;;
9722;SDS011;4900;49.306;8.500;2022-09-09T05:02:18;6.30;;;1.77;;
9722;SDS011;4900;49.306;8.500;2022-09-09T05:05:21;3.17;;;1.30;;
9722;SDS011;4900;49.306;8.500;2022-09-09T05:08:25;4.20;;;1.30;;
9722;SDS011;4900;49.306;8.500;2022-09-09T05:11:29;5.25;;;1.60;;
9722;SDS011;4900;49.306;8.500;2022-09-09T05:14:34;3.63;;;1.13;;
9722;SDS011;4900;49.306;8.500;2022-09-09T05:17:39;3.08;;;1.33;;
9722;SDS011;4900;49.306;8.500;2022-09-09T05:20:42;3.22;;;1.30;;
9722;SDS011;4900;49.306;8.500;2022-09-09T05:23:45;3.88;;;1.40;;
9722;SDS011;4900;49.306;8.500;2022-09-09T05:26:49;2.10;;;1.17;;
9722;SDS011;4900;49.306;8.500;2022-09-09T05:29:52;3.10;;;1.30;;
9722;SDS011;4900;49.306;8.500;2022-09-09T05:32:57;1.40;;;1.13;;
9722;SDS011;4900;49.306;8.500;2022-09-09T05:36:02;3.55;;;1.40;;
9722;SDS011;4900;49.306;8.500;2022-09-09T05:39:10;2.00;;;1.25;;
9722;SDS011;4900;49.306;8.500;2022-09-09T05:42:14;2.55;;;1.30;;
9722;SDS011;4900;49.306;8.500;2022-09-09T05:45:17;4.70;;;1.33;;
9722;SDS011;4900;49.306;8.500;2022-09-09T05:48:21;3.17;;;1.10;;
9722;SDS011;4900;49.306;8.500;2022-09-09T05:51:26;2.08;;;1.20;;
9722;SDS011;4900;49.306;8.500;2022-09-09T05:54:32;2.85;;;1.40;;
9722;SDS011;4900;49.306;8.500;2022-09-09T05:57:35;2.72;;;1.33;;
9722;SDS011;4900;49.306;8.500;2022-09-09T06:00:38;1.98;;;1.10;;
9722;SDS011;4900;49.306;8.500;2022-09-09T06:03:42;2.65;;;1.25;;
9722;SDS011;4900;49.306;8.500;2022-09-09T06:06:46;2.47;;;1.20;;
9722;SDS011;4900;49.306;8.500;2022-09-09T06:09:51;2.75;;;1.30;;
9722;SDS011;4900;49.306;8.500;2022-09-09T06:12:54;2.20;;;1.45;;
9722;SDS011;4900;49.306;8.500;2022-09-09T06:15:58;2.35;;;1.20;;
9722;SDS011;4900;49.306;8.500;2022-09-09T06:19:02;4.78;;;1.30;;
9722;SDS011;4900;49.306;8.500;2022-09-09T06:22:07;2.97;;;1.20;;
9722;SDS011;4900;49.306;8.500;2022-09-09T06:25:14;2.53;;;1.30;;
9722;SDS011;4900;49.306;8.500;2022-09-09T06:28:17;2.65;;;1.40;;
9722;SDS011;4900;49.306;8.500;2022-09-09T06:31:22;2.83;;;1.40;;
9722;SDS011;4900;49.306;8.500;2022-09-09T06:34:26;2.72;;;1.40;;
9722;SDS011;4900;49.306;8.500;2022-09-09T06:37:30;3.83;;;1.60;;
9722;SDS011;4900;49.306;8.500;2022-09-09T06:40:34;2.85;;;1.45;;
9722;SDS011;4900;49.306;8.500;2022-09-09T06:43:38;6.28;;;1.77;;
9722;SDS011;4900;49.306;8.500;2022-09-09T06:46:41;2.15;;;1.42;;
9722;SDS011;4900;49.306;8.500;2022-09-09T06:49:45;3.08;;;1.40;;
9722;SDS011;4900;49.306;8.500;2022-09-09T06:52:47;4.15;;;1.58;;
9722;SDS011;4900;49.306;8.500;2022-09-09T06:55:51;2.33;;;1.40;;
9722;SDS011;4900;49.306;8.500;2022-09-09T06:58:55;3.35;;;1.63;;
9722;SDS011;4900;49.306;8.500;2022-09-09T07:02:01;3.97;;;1.45;;
9722;SDS011;4900;49.306;8.500;2022-09-09T07:05:05;4.07;;;1.60;;
9722;SDS011;4900;49.306;8.500;2022-09-09T07:08:08;3.85;;;1.65;;
9722;SDS011;4900;49.306;8.500;2022-09-09T07:11:12;2.05;;;1.30;;
9722;SDS011;4900;49.306;8.500;2022-09-09T07:14:15;2.05;;;1.27;;
9722;SDS011;4900;49.306;8.500;2022-09-09T07:17:19;3.00;;;1.50;;
9722;SDS011;4900;49.306;8.500;2022-09-09T07:20:22;2.90;;;1.08;;
9722;SDS011;4900;49.306;8.500;2022-09-09T07:23:25;2.90;;;1.33;;
9722;SDS011;4900;49.306;8.500;2022-09-09T07:26:29;3.20;;;1.30;;
9722;SDS011;4900;49.306;8.500;2022-09-09T07:29:33;2.97;;;1.30;;
9722;SDS011;4900;49.306;8.500;2022-09-09T07:32:36;1.90;;;1.20;;
9722;SDS011;4900;49.306;8.500;2022-09-09T07:35:39;2.28;;;1.30;;
9722;SDS011;4900;49.306;8.500;2022-09-09T07:38:47;4.03;;;1.30;;
9722;SDS011;4900;49.306;8.500;2022-09-09T07:41:51;3.40;;;1.40;;
9722;SDS011;4900;49.306;8.500;2022-09-09T07:44:57;3.08;;;1.27;;
9722;SDS011;4900;49.306;8.500;2022-09-09T07:48:00;3.22;;;1.35;;
9722;SDS011;4900;49.306;8.500;2022-09-09T07:51:04;3.85;;;1.50;;
9722;SDS011;4900;49.306;8.500;2022-09-09T07:54:10;2.72;;;1.40;;
9722;SDS011;4900;49.306;8.500;2022-09-09T07:57:15;3.75;;;1.23;;
9722;SDS011;4900;49.306;8.500;2022-09-09T08:00:19;3.20;;;1.30;;
9722;SDS011;4900;49.306;8.500;2022-09-09T08:03:24;5.15;;;1.30;;
9722;SDS011;4900;49.306;8.500;2022-09-09T08:06:31;4.60;;;1.67;;
9722;SDS011;4900;49.306;8.500;2022-09-09T08:09:37;1.90;;;1.50;;
9722;SDS011;4900;49.306;8.500;2022-09-09T08:12:40;3.13;;;1.70;;
9722;SDS011;4900;49.306;8.500;2022-09-09T08:15:44;3.78;;;1.63;;
9722;SDS011;4900;49.306;8.500;2022-09-09T08:18:48;3.97;;;1.50;;
9722;SDS011;4900;49.306;8.500;2022-09-09T08:21:52;2.83;;;1.50;;
9722;SDS011;4900;49.306;8.500;2022-09-09T08:24:56;3.40;;;1.40;;
9722;SDS011;4900;49.306;8.500;2022-09-09T08:27:59;3.72;;;1.50;;
9722;SDS011;4900;49.306;8.500;2022-09-09T08:31:11;3.80;;;1.60;;
9722;SDS011;4900;49.306;8.500;2022-09-09T08:34:16;4.20;;;1.40;;
9722;SDS011;4900;49.306;8.500;2022-09-09T08:37:23;3.38;;;1.45;;
9722;SDS011;4900;49.306;8.500;2022-09-09T08:40:28;6.22;;;1.77;;
9722;SDS011;4900;49.306;8.500;2022-09-09T08:43:40;4.80;;;1.63;;
9722;SDS011;4900;49.306;8.500;2022-09-09T08:53:38;3.08;;;1.48;;
9722;SDS011;4900;49.306;8.500;2022-09-09T08:56:48;3.60;;;1.20;;
9722;SDS011;4900;49.306;8.500;2022-09-09T08:59:52;2.58;;;1.30;;
9722;SDS011;4900;49.306;8.500;2022-09-09T09:06:06;2.50;;;1.30;;
9722;SDS011;4900;49.306;8.500;2022-09-09T09:13:18;2.97;;;1.40;;
9722;SDS011;4900;49.306;8.500;2022-09-09T09:16:26;3.95;;;1.30;;
9722;SDS011;4900;49.306;8.500;2022-09-09T09:19:35;3.67;;;1.35;;
9722;SDS011;4900;49.306;8.500;2022-09-09T09:22:51;4.20;;;1.45;;
9722;SDS011;4900;49.306;8.500;2022-09-09T09:25:58;3.25;;;1.35;;
9722;SDS011;4900;49.306;8.500;2022-09-09T09:29:13;5.20;;;1.50;;
9722;SDS011;4900;49.306;8.500;2022-09-09T09:32:21;1.83;;;1.40;;
9722;SDS011;4900;49.306;8.500;2022-09-09T09:35:25;4.28;;;1.60;;
9722;SDS011;4900;49.306;8.500;2022-09-09T09:38:29;3.28;;;1.27;;
9722;SDS011;4900;49.306;8.500;2022-09-09T09:41:39;3.35;;;1.50;;
9722;SDS011;4900;49.306;8.500;2022-09-09T09:44:44;5.72;;;1.50;;
9722;SDS011;4900;49.306;8.500;2022-09-09T09:47:56;4.38;;;1.40;;
9722;SDS011;4900;49.306;8.500;2022-09-09T09:51:04;7.45;;;1.65;;
9722;SDS011;4900;49.306;8.500;2022-09-09T09:54:14;3.72;;;1.67;;
9722;SDS011;4900;49.306;8.500;2022-09-09T09:57:26;4.65;;;1.75;;
9722;SDS011;4900;49.306;8.500;2022-09-09T10:00:34;2.95;;;1.45;;
9722;SDS011;4900;49.306;8.500;2022-09-09T10:03:37;3.50;;;1.50;;
9722;SDS011;4900;49.306;8.500;2022-09-09T10:06:43;2.70;;;1.30;;
9722;SDS011;4900;49.306;8.500;2022-09-09T10:09:52;4.60;;;1.40;;
9722;SDS011;4900;49.306;8.500;2022-09-09T10:16:31;3.63;;;1.60;;
9722;SDS011;4900;49.306;8.500;2022-09-09T10:23:28;2.78;;;1.30;;
9722;SDS011;4900;49.306;8.500;2022-09-09T10:26:55;2.80;;;1.35;;
9722;SDS011;4900;49.306;8.500;2022-09-09T10:36:55;3.22;;;1.27;;
9722;SDS011;4900;49.306;8.500;2022-09-09T10:40:05;3.47;;;1.52;;
9722;SDS011;4900;49.306;8.500;2022-09-09T10:47:10;2.83;;;1.40;;
9722;SDS011;4900;49.306;8.500;2022-09-09T10:50:50;3.10;;;1.42;;
9722;SDS011;4900;49.306;8.500;2022-09-09T10:57:37;3.20;;;1.42;;
9722;SDS011;4900;49.306;8.500;2022-09-09T11:00:49;2.20;;;1.30;;
9722;SDS011;4900;49.306;8.500;2022-09-09T11:03:59;3.30;;;1.40;;
9722;SDS011;4900;49.306;8.500;2022-09-09T11:07:09;2.67;;;1.30;;
9722;SDS011;4900;49.306;8.500;2022-09-09T11:10:17;5.55;;;2.10;;
9722;SDS011;4900;49.306;8.500;2022-09-09T11:13:26;2.58;;;1.30;;
9722;SDS011;4900;49.306;8.500;2022-09-09T11:19:54;4.55;;;1.52;;
9722;SDS011;4900;49.306;8.500;2022-09-09T11:23:02;4.32;;;1.45;;
9722;SDS011;4900;49.306;8.500;2022-09-09T11:26:32;3.08;;;1.40;;
9722;SDS011;4900;49.306;8.500;2022-09-09T11:33:30;4.10;;;1.45;;
9722;SDS011;4900;49.306;8.500;2022-09-09T11:46:16;2.33;;;1.20;;
9722;SDS011;4900;49.306;8.500;2022-09-09T11:49:42;2.10;;;1.20;;
9722;SDS011;4900;49.306;8.500;2022-09-09T11:52:45;2.50;;;1.30;;
9722;SDS011;4900;49.306;8.500;2022-09-09T11:56:04;3.92;;;1.23;;
9722;SDS011;4900;49.306;8.500;2022-09-09T11:59:22;5.50;;;1.50;;
9722;SDS011;4900;49.306;8.500;2022-09-09T12:02:35;5.03;;;1.38;;
9722;SDS011;4900;49.306;8.500;2022-09-09T12:05:39;3.25;;;1.38;;
9722;SDS011;4900;49.306;8.500;2022-09-09T12:08:46;4.13;;;1.30;;
9722;SDS011;4900;49.306;8.500;2022-09-09T12:12:04;4.22;;;1.40;;
9722;SDS011;4900;49.306;8.500;2022-09-09T12:15:27;3.60;;;1.40;;
9722;SDS011;4900;49.306;8.500;2022-09-09T12:18:32;2.42;;;1.30;;
9722;SDS011;4900;49.306;8.500;2022-09-09T12:21:48;4.22;;;1.55;;
9722;SDS011;4900;49.306;8.500;2022-09-09T12:28:27;3.63;;;1.20;;
9722;SDS011;4900;49.306;8.500;2022-09-09T12:35:13;3.50;;;1.30;;
9722;SDS011;4900;49.306;8.500;2022-09-09T12:38:30;3.17;;;1.33;;
9722;SDS011;4900;49.306;8.500;2022-09-09T12:41:35;3.10;;;1.40;;
9722;SDS011;4900;49.306;8.500;2022-09-09T12:44:38;2.97;;;1.27;;
9722;SDS011;4900;49.306;8.500;2022-09-09T12:48:00;3.40;;;1.30;;
9722;SDS011;4900;49.306;8.500;2022-09-09T12:54:46;3.45;;;1.58;;
9722;SDS011;4900;49.306;8.500;2022-09-09T12:57:50;3.78;;;1.40;;
9722;SDS011;4900;49.306;8.500;2022-09-09T13:00:55;3.92;;;1.38;;
9722;SDS011;4900;49.306;8.500;2022-09-09T13:03:59;2.53;;;1.27;;
9722;SDS011;4900;49.306;8.500;2022-09-09T13:07:06;3.67;;;1.30;;
9722;SDS011;4900;49.306;8.500;2022-09-09T13:10:17;2.22;;;1.08;;
9722;SDS011;4900;49.306;8.500;2022-09-09T13:13:27;3.22;;;1.08;;
9722;SDS011;4900;49.306;8.500;2022-09-09T13:16:36;1.60;;;0.85;;
9722;SDS011;4900;49.306;8.500;2022-09-09T13:19:40;5.28;;;1.27;;
9722;SDS011;4900;49.306;8.500;2022-09-09T13:22:48;3.35;;;0.98;;
9722;SDS011;4900;49.306;8.500;2022-09-09T13:25:56;4.50;;;1.20;;
9722;SDS011;4900;49.306;8.500;2022-09-09T13:29:08;2.58;;;1.20;;
9722;SDS011;4900;49.306;8.500;2022-09-09T13:32:23;2.47;;;1.08;;
9722;SDS011;4900;49.306;8.500;2022-09-09T13:35:27;8.15;;;1.40;;
9722;SDS011;4900;49.306;8.500;2022-09-09T13:38:53;4.13;;;1.20;;
9722;SDS011;4900;49.306;8.500;2022-09-09T13:41:54;2.63;;;1.20;;
9722;SDS011;4900;49.306;8.500;2022-09-09T13:44:58;5.10;;;1.48;;
9722;SDS011;4900;49.306;8.500;2022-09-09T13:48:10;3.53;;;1.30;;
9722;SDS011;4900;49.306;8.500;2022-09-09T13:51:28;2.83;;;1.08;;
9722;SDS011;4900;49.306;8.500;2022-09-09T13:54:35;2.28;;;0.90;;
9722;SDS011;4900;49.306;8.500;2022-09-09T13:57:39;1.60;;;0.80;;
9722;SDS011;4900;49.306;8.500;2022-09-09T14:00:53;3.90;;;1.25;;
9722;SDS011;4900;49.306;8.500;2022-09-09T14:03:56;1.75;;;0.93;;
9722;SDS011;4900;49.306;8.500;2022-09-09T14:07:00;2.90;;;1.20;;
9722;SDS011;4900;49.306;8.500;2022-09-09T14:10:04;2.28;;;1.00;;
9722;SDS011;4900;49.306;8.500;2022-09-09T14:13:08;1.52;;;1.10;;
9722;SDS011;4900;49.306;8.500;2022-09-09T14:16:11;3.38;;;1.17;;
9722;SDS011;4900;49.306;8.500;2022-09-09T14:19:15;3.80;;;1.00;;
9722;SDS011;4900;49.306;8.500;2022-09-09T14:22:18;2.75;;;1.30;;
9722;SDS011;4900;49.306;8.500;2022-09-09T14:25:21;2.17;;;1.17;;
9722;SDS011;4900;49.306;8.500;2022-09-09T14:28:25;2.17;;;1.20;;
9722;SDS011;4900;49.306;8.500;2022-09-09T14:31:28;2.85;;;1.10;;
9722;SDS011;4900;49.306;8.500;2022-09-09T14:34:31;2.03;;;0.93;;
9722;SDS011;4900;49.306;8.500;2022-09-09T14:37:34;2.90;;;1.33;;
9722;SDS011;4900;49.306;8.500;2022-09-09T14:40:38;2.97;;;1.10;;
9722;SDS011;4900;49.306;8.500;2022-09-09T14:43:41;2.72;;;1.30;;
9722;SDS011;4900;49.306;8.500;2022-09-09T14:46:45;2.78;;;1.30;;
9722;SDS011;4900;49.306;8.500;2022-09-09T14:49:48;2.88;;;1.10;;
9722;SDS011;4900;49.306;8.500;2022-09-09T14:52:52;2.65;;;1.13;;
9722;SDS011;4900;49.306;8.500;2022-09-09T14:56:02;3.60;;;1.13;;
9722;SDS011;4900;49.306;8.500;2022-09-09T14:59:06;2.63;;;1.10;;
9722;SDS011;4900;49.306;8.500;2022-09-09T15:02:09;1.70;;;1.00;;
9722;SDS011;4900;49.306;8.500;2022-09-09T15:05:12;2.65;;;1.08;;
9722;SDS011;4900;49.306;8.500;2022-09-09T15:08:15;1.98;;;1.15;;
9722;SDS011;4900;49.306;8.500;2022-09-09T15:11:19;2.78;;;2.03;;
9722;SDS011;4900;49.306;8.500;2022-09-09T15:14:23;5.88;;;2.97;;
9722;SDS011;4900;49.306;8.500;2022-09-09T15:17:26;4.47;;;4.07;;
9722;SDS011;4900;49.306;8.500;2022-09-09T15:20:47;6.88;;;5.15;;
9722;SDS011;4900;49.306;8.500;2022-09-09T15:23:50;3.80;;;1.80;;
9722;SDS011;4900;49.306;8.500;2022-09-09T15:26:54;1.80;;;1.30;;
9722;SDS011;4900;49.306;8.500;2022-09-09T15:29:57;5.85;;;1.40;;
9722;SDS011;4900;49.306;8.500;2022-09-09T15:33:00;5.05;;;1.42;;
9722;SDS011;4900;49.306;8.500;2022-09-09T15:36:23;3.97;;;1.27;;
9722;SDS011;4900;49.306;8.500;2022-09-09T15:39:27;2.63;;;1.08;;
9722;SDS011;4900;49.306;8.500;2022-09-09T15:42:31;2.53;;;1.10;;
9722;SDS011;4900;49.306;8.500;2022-09-09T15:45:34;2.25;;;1.00;;
9722;SDS011;4900;49.306;8.500;2022-09-09T15:48:37;3.08;;;1.10;;
9722;SDS011;4900;49.306;8.500;2022-09-09T15:51:42;3.05;;;1.30;;
9722;SDS011;4900;49.306;8.500;2022-09-09T15:54:47;2.88;;;1.67;;
9722;SDS011;4900;49.306;8.500;2022-09-09T15:57:51;2.67;;;1.35;;
9722;SDS011;4900;49.306;8.500;2022-09-09T16:01:04;1.90;;;1.10;;
9722;SDS011;4900;49.306;8.500;2022-09-09T16:04:10;2.40;;;1.30;;
9722;SDS011;4900;49.306;8.500;2022-09-09T16:07:13;2.17;;;1.20;;
9722;SDS011;4900;49.306;8.500;2022-09-09T16:10:16;1.13;;;0.90;;
9722;SDS011;4900;49.306;8.500;2022-09-09T16:13:20;1.65;;;1.08;;
9722;SDS011;4900;49.306;8.500;2022-09-09T16:16:24;3.00;;;1.20;;
9722;SDS011;4900;49.306;8.500;2022-09-09T16:19:29;2.20;;;1.27;;
9722;SDS011;4900;49.306;8.500;2022-09-09T16:22:32;2.65;;;1.30;;
9722;SDS011;4900;49.306;8.500;2022-09-09T16:25:36;3.92;;;1.30;;
9722;SDS011;4900;49.306;8.500;2022-09-09T16:28:40;2.33;;;1.20;;
9722;SDS011;4900;49.306;8.500;2022-09-09T16:31:45;4.75;;;1.48;;
9722;SDS011;4900;49.306;8.500;2022-09-09T16:34:49;2.97;;;1.30;;
9722;SDS011;4900;49.306;8.500;2022-09-09T16:37:52;3.15;;;1.30;;
9722;SDS011;4900;49.306;8.500;2022-09-09T16:40:58;2.13;;;1.17;;
9722;SDS011;4900;49.306;8.500;2022-09-09T16:44:03;2.42;;;1.30;;
9722;SDS011;4900;49.306;8.500;2022-09-09T16:47:08;3.95;;;1.35;;
9722;SDS011;4900;49.306;8.500;2022-09-09T16:50:11;3.50;;;1.23;;
9722;SDS011;4900;49.306;8.500;2022-09-09T16:53:14;1.98;;;1.30;;
9722;SDS011;4900;49.306;8.500;2022-09-09T16:56:19;3.17;;;1.40;;
9722;SDS011;4900;49.306;8.500;2022-09-09T16:59:24;2.53;;;1.25;;
9722;SDS011;4900;49.306;8.500;2022-09-09T17:02:29;2.50;;;1.35;;
9722;SDS011;4900;49.306;8.500;2022-09-09T17:05:32;3.60;;;1.33;;
9722;SDS011;4900;49.306;8.500;2022-09-09T17:08:41;3.58;;;1.38;;
9722;SDS011;4900;49.306;8.500;2022-09-09T17:11:44;1.95;;;1.15;;
9722;SDS011;4900;49.306;8.500;2022-09-09T17:14:48;2.42;;;1.42;;
9722;SDS011;4900;49.306;8.500;2022-09-09T17:17:52;3.75;;;1.40;;
9722;SDS011;4900;49.306;8.500;2022-09-09T17:20:59;3.20;;;1.33;;
9722;SDS011;4900;49.306;8.500;2022-09-09T17:24:10;2.75;;;1.45;;
9722;SDS011;4900;49.306;8.500;2022-09-09T17:27:13;3.42;;;1.30;;
9722;SDS011;4900;49.306;8.500;2022-09-09T17:30:17;3.25;;;1.20;;
9722;SDS011;4900;49.306;8.500;2022-09-09T17:33:20;2.50;;;1.40;;
9722;SDS011;4900;49.306;8.500;2022-09-09T17:36:31;1.80;;;1.30;;
9722;SDS011;4900;49.306;8.500;2022-09-09T17:39:35;3.17;;;1.30;;
9722;SDS011;4900;49.306;8.500;2022-09-09T17:42:38;3.35;;;1.50;;
9722;SDS011;4900;49.306;8.500;2022-09-09T17:45:43;2.60;;;1.20;;
9722;SDS011;4900;49.306;8.500;2022-09-09T17:48:49;3.03;;;1.27;;
9722;SDS011;4900;49.306;8.500;2022-09-09T17:51:55;1.77;;;1.15;;
9722;SDS011;4900;49.306;8.500;2022-09-09T17:54:58;1.95;;;1.30;;
9722;SDS011;4900;49.306;8.500;2022-09-09T17:58:02;1.65;;;1.00;;
9722;SDS011;4900;49.306;8.500;2022-09-09T18:01:09;3.10;;;1.30;;
9722;SDS011;4900;49.306;8.500;2022-09-09T18:04:16;1.95;;;1.20;;
9722;SDS011;4900;49.306;8.500;2022-09-09T18:07:19;2.58;;;1.20;;
9722;SDS011;4900;49.306;8.500;2022-09-09T18:10:23;2.08;;;1.20;;
9722;SDS011;4900;49.306;8.500;2022-09-09T18:13:26;2.58;;;1.20;;
9722;SDS011;4900;49.306;8.500;2022-09-09T18:16:31;2.15;;;1.30;;
9722;SDS011;4900;49.306;8.500;2022-09-09T18:19:38;4.50;;;1.20;;
9722;SDS011;4900;49.306;8.500;2022-09-09T18:22:42;1.55;;;1.10;;
9722;SDS011;4900;49.306;8.500;2022-09-09T18:25:45;2.95;;;1.40;;
9722;SDS011;4900;49.306;8.500;2022-09-09T18:28:49;3.03;;;1.40;;
9722;SDS011;4900;49.306;8.500;2022-09-09T18:32:01;2.20;;;1.30;;
9722;SDS011;4900;49.306;8.500;2022-09-09T18:35:04;4.20;;;1.38;;
9722;SDS011;4900;49.306;8.500;2022-09-09T18:38:08;3.78;;;1.40;;
9722;SDS011;4900;49.306;8.500;2022-09-09T18:41:12;2.25;;;1.20;;
9722;SDS011;4900;49.306;8.500;2022-09-09T18:44:21;4.28;;;1.45;;
9722;SDS011;4900;49.306;8.500;2022-09-09T18:47:27;3.10;;;1.17;;
9722;SDS011;4900;49.306;8.500;2022-09-09T18:50:32;2.38;;;1.40;;
9722;SDS011;4900;49.306;8.500;2022-09-09T18:53:41;3.30;;;1.48;;
9722;SDS011;4900;49.306;8.500;2022-09-09T18:56:44;2.45;;;1.30;;
9722;SDS011;4900;49.306;8.500;2022-09-09T18:59:47;1.63;;;1.15;;
9722;SDS011;4900;49.306;8.500;2022-09-09T19:02:51;3.15;;;1.20;;
9722;SDS011;4900;49.306;8.500;2022-09-09T19:06:08;3.33;;;1.35;;
9722;SDS011;4900;49.306;8.500;2022-09-09T19:09:17;2.50;;;1.27;;
9722;SDS011;4900;49.306;8.500;2022-09-09T19:12:20;2.08;;;1.52;;
9722;SDS011;4900;49.306;8.500;2022-09-09T19:15:23;2.30;;;1.40;;
9722;SDS011;4900;49.306;8.500;2022-09-09T19:18:27;2.28;;;1.50;;
9722;SDS011;4900;49.306;8.500;2022-09-09T19:21:34;2.83;;;1.38;;
9722;SDS011;4900;49.306;8.500;2022-09-09T19:24:40;3.40;;;1.30;;
9722;SDS011;4900;49.306;8.500;2022-09-09T19:27:44;2.90;;;1.33;;
9722;SDS011;4900;49.306;8.500;2022-09-09T19:30:47;2.25;;;1.40;;
9722;SDS011;4900;49.306;8.500;2022-09-09T19:33:51;3.10;;;1.30;;
9722;SDS011;4900;49.306;8.500;2022-09-09T19:36:55;1.55;;;1.20;;
9722;SDS011;4900;49.306;8.500;2022-09-09T19:39:58;3.35;;;1.70;;
9722;SDS011;4900;49.306;8.500;2022-09-09T19:43:01;3.10;;;1.98;;
9722;SDS011;4900;49.306;8.500;2022-09-09T19:46:05;4.03;;;2.20;;
9722;SDS011;4900;49.306;8.500;2022-09-09T19:49:11;3.42;;;2.47;;
9722;SDS011;4900;49.306;8.500;2022-09-09T19:52:15;2.72;;;2.15;;
9722;SDS011;4900;49.306;8.500;2022-09-09T19:55:18;3.88;;;2.38;;
9722;SDS011;4900;49.306;8.500;2022-09-09T19:58:21;3.20;;;2.58;;
9722;SDS011;4900;49.306;8.500;2022-09-09T20:01:25;4.28;;;2.55;;
9722;SDS011;4900;49.306;8.500;2022-09-09T20:04:30;4.93;;;2.60;;
9722;SDS011;4900;49.306;8.500;2022-09-09T20:07:35;4.18;;;2.30;;
9722;SDS011;4900;49.306;8.500;2022-09-09T20:10:39;4.03;;;2.33;;
9722;SDS011;4900;49.306;8.500;2022-09-09T20:13:42;2.78;;;2.03;;
9722;SDS011;4900;49.306;8.500;2022-09-09T20:16:45;3.83;;;2.10;;
9722;SDS011;4900;49.306;8.500;2022-09-09T20:19:49;4.80;;;2.15;;
9722;SDS011;4900;49.306;8.500;2022-09-09T20:22:52;3.50;;;2.10;;
9722;SDS011;4900;49.306;8.500;2022-09-09T20:25:59;2.42;;;1.92;;
9722;SDS011;4900;49.306;8.500;2022-09-09T20:29:05;3.08;;;1.70;;
9722;SDS011;4900;49.306;8.500;2022-09-09T20:32:10;2.78;;;1.70;;
9722;SDS011;4900;49.306;8.500;2022-09-09T20:35:14;2.17;;;1.40;;
9722;SDS011;4900;49.306;8.500;2022-09-09T20:38:18;1.63;;;1.33;;
9722;SDS011;4900;49.306;8.500;2022-09-09T20:41:21;1.92;;;1.40;;
9722;SDS011;4900;49.306;8.500;2022-09-09T20:44:25;2.35;;;1.58;;
9722;SDS011;4900;49.306;8.500;2022-09-09T20:47:29;3.15;;;1.63;;
9722;SDS011;4900;49.306;8.500;2022-09-09T20:50:36;3.30;;;1.70;;
9722;SDS011;4900;49.306;8.500;2022-09-09T20:53:39;2.95;;;1.60;;
9722;SDS011;4900;49.306;8.500;2022-09-09T20:56:43;4.72;;;1.88;;
9722;SDS011;4900;49.306;8.500;2022-09-09T20:59:47;2.83;;;1.80;;
9722;SDS011;4900;49.306;8.500;2022-09-09T21:02:52;2.88;;;2.00;;